Time;durP1;ratioP1;P1;durP2;ratioP2;P2;SDS_P1;SDS_P2;PMS_P1;PMS_P2;Temp;Humidity;BMP_temperature;BMP_pressure;BME280_temperature;BME280_humidity;BME280_pressure;Samples;Min_cycle;Max_cycle;Signal;HPM_P1;HPM_P2
2023/07/17 00:02:21;;;;;;;20.25;3.97;;;;;;;;;;4976531;28;20053;-70
2023/07/17 00:04:46;;;;;;;25.02;4.90;;;;;;;;;;4976596;28;20113;-70
2023/07/17 00:07:11;;;;;;;27.58;5.60;;;;;;;;;;4973563;28;20042;-70
2023/07/17 00:09:37;;;;;;;23.55;4.45;;;;;;;;;;4977147;28;20047;-70
2023/07/17 00:12:03;;;;;;;18.77;4.30;;;;;;;;;;4976706;28;20383;-70
2023/07/17 00:14:29;;;;;;;17.40;4.07;;;;;;;;;;4976645;28;20078;-70
2023/07/17 00:16:54;;;;;;;17.33;4.40;;;;;;;;;;4976667;28;20067;-70
2023/07/17 00:19:19;;;;;;;15.65;4.03;;;;;;;;;;4976663;28;20038;-70
2023/07/17 00:21:45;;;;;;;17.52;4.22;;;;;;;;;;4976492;28;20043;-70
2023/07/17 00:24:10;;;;;;;20.25;4.22;;;;;;;;;;4976608;28;20078;-70
2023/07/17 00:26:35;;;;;;;16.42;4.35;;;;;;;;;;4975375;28;20050;-70
2023/07/17 00:29:28;;;;;;;17.13;4.38;;;;;;;;;;4976444;28;20031;-70
2023/07/17 00:31:54;;;;;;;19.75;4.65;;;;;;;;;;4970649;28;20104;-69
2023/07/17 00:34:20;;;;;;;13.40;4.13;;;;;;;;;;4975164;28;20475;-70
2023/07/17 00:36:45;;;;;;;16.30;3.88;;;;;;;;;;4975144;28;20046;-70
2023/07/17 00:39:11;;;;;;;16.60;3.88;;;;;;;;;;4974657;28;20109;-70
2023/07/17 00:41:36;;;;;;;20.38;4.60;;;;;;;;;;4973897;28;20484;-70
2023/07/17 00:44:03;;;;;;;17.92;3.95;;;;;;;;;;4976122;28;20118;-70
2023/07/17 00:46:29;;;;;;;26.25;4.40;;;;;;;;;;4975159;28;20098;-70
2023/07/17 00:48:54;;;;;;;18.08;4.28;;;;;;;;;;4975616;28;20092;-70
2023/07/17 00:51:20;;;;;;;17.35;4.07;;;;;;;;;;4975685;28;20118;-69
2023/07/17 00:53:45;;;;;;;24.38;3.97;;;;;;;;;;4975984;28;20039;-70
2023/07/17 00:56:11;;;;;;;18.60;4.55;;;;;;;;;;4974769;28;20031;-70
2023/07/17 00:58:36;;;;;;;25.20;4.40;;;;;;;;;;4974804;28;20085;-70
2023/07/17 01:01:03;;;;;;;18.77;4.40;;;;;;;;;;4975475;28;20054;-70
2023/07/17 01:03:29;;;;;;;15.80;3.92;;;;;;;;;;4975474;28;20446;-70
2023/07/17 01:05:56;;;;;;;17.50;4.20;;;;;;;;;;4975773;28;20073;-70
2023/07/17 01:08:22;;;;;;;15.48;4.72;;;;;;;;;;4974488;28;20034;-70
2023/07/17 01:10:47;;;;;;;21.40;3.85;;;;;;;;;;4975758;28;20031;-69
2023/07/17 01:13:13;;;;;;;17.25;4.20;;;;;;;;;;4975472;28;20360;-70
2023/07/17 01:15:38;;;;;;;16.55;3.97;;;;;;;;;;4975747;28;20039;-70
2023/07/17 01:18:03;;;;;;;14.43;4.18;;;;;;;;;;4975399;28;20035;-70
2023/07/17 01:20:28;;;;;;;20.42;4.07;;;;;;;;;;4975540;28;20109;-70
2023/07/17 01:23:00;;;;;;;18.33;4.03;;;;;;;;;;4975627;28;20394;-70
2023/07/17 01:25:25;;;;;;;20.35;4.00;;;;;;;;;;4974159;28;20034;-70
2023/07/17 01:27:51;;;;;;;18.60;3.70;;;;;;;;;;4974346;28;20042;-70
2023/07/17 01:30:17;;;;;;;16.95;3.88;;;;;;;;;;4973755;28;20384;-70
2023/07/17 01:32:42;;;;;;;15.27;3.97;;;;;;;;;;4975558;28;20096;-70
2023/07/17 01:35:08;;;;;;;14.55;3.95;;;;;;;;;;4973981;28;20534;-70
2023/07/17 01:37:33;;;;;;;13.50;3.60;;;;;;;;;;4974755;28;20129;-70
2023/07/17 01:39:58;;;;;;;20.67;4.65;;;;;;;;;;4975148;28;20411;-70
2023/07/17 01:42:24;;;;;;;10.38;3.20;;;;;;;;;;4975153;28;20046;-70
2023/07/17 01:44:49;;;;;;;9.07;3.10;;;;;;;;;;4975069;28;20037;-70
2023/07/17 01:47:14;;;;;;;14.35;3.30;;;;;;;;;;4975208;28;20051;-70
2023/07/17 01:49:40;;;;;;;21.17;3.38;;;;;;;;;;4974650;28;20039;-70
2023/07/17 01:52:07;;;;;;;9.30;3.42;;;;;;;;;;4974991;28;20383;-69
2023/07/17 01:54:32;;;;;;;19.88;4.10;;;;;;;;;;4974582;28;20555;-70
2023/07/17 01:56:58;;;;;;;12.82;4.07;;;;;;;;;;4974725;28;20182;-70
2023/07/17 01:59:23;;;;;;;15.27;3.70;;;;;;;;;;4972808;28;20058;-70
2023/07/17 02:01:48;;;;;;;14.95;3.83;;;;;;;;;;4974975;28;20089;-70
2023/07/17 02:04:13;;;;;;;11.15;3.70;;;;;;;;;;4974681;28;20086;-70
2023/07/17 02:06:39;;;;;;;12.23;3.50;;;;;;;;;;4974731;28;20387;-70
2023/07/17 02:09:04;;;;;;;24.13;4.68;;;;;;;;;;4973912;28;20395;-70
2023/07/17 02:11:30;;;;;;;18.52;3.90;;;;;;;;;;4974742;28;20047;-70
2023/07/17 02:13:56;;;;;;;15.10;3.90;;;;;;;;;;4973464;28;20038;-70
2023/07/17 02:16:21;;;;;;;24.45;4.32;;;;;;;;;;4974698;28;20197;-69
2023/07/17 02:18:46;;;;;;;17.08;4.13;;;;;;;;;;4973380;28;20038;-69
2023/07/17 02:21:12;;;;;;;20.10;4.47;;;;;;;;;;4973530;28;20039;-70
2023/07/17 02:23:37;;;;;;;16.73;4.13;;;;;;;;;;4974396;28;20046;-70
2023/07/17 02:26:03;;;;;;;17.20;3.65;;;;;;;;;;4974698;28;20054;-70
2023/07/17 02:28:29;;;;;;;22.00;3.92;;;;;;;;;;4974453;28;20045;-70
2023/07/17 02:30:54;;;;;;;25.77;4.95;;;;;;;;;;4973393;28;20043;-70
2023/07/17 02:33:19;;;;;;;23.08;4.15;;;;;;;;;;4971406;28;20405;-70
2023/07/17 02:35:45;;;;;;;27.70;4.75;;;;;;;;;;4974272;28;20058;-70
2023/07/17 02:38:10;;;;;;;18.20;4.40;;;;;;;;;;4974243;28;20078;-70
2023/07/17 02:40:35;;;;;;;24.20;5.00;;;;;;;;;;4974368;28;20170;-70
2023/07/17 02:43:01;;;;;;;21.90;4.95;;;;;;;;;;4974272;28;20094;-70
2023/07/17 02:45:26;;;;;;;22.13;4.38;;;;;;;;;;4974420;28;20041;-70
2023/07/17 02:47:52;;;;;;;16.98;3.90;;;;;;;;;;4974336;28;20471;-70
2023/07/17 02:50:18;;;;;;;21.65;3.75;;;;;;;;;;4972942;28;20479;-70
2023/07/17 02:52:43;;;;;;;15.15;3.63;;;;;;;;;;4973279;28;20042;-70
2023/07/17 02:55:09;;;;;;;11.63;3.42;;;;;;;;;;4973365;28;20070;-70
2023/07/17 02:57:35;;;;;;;11.80;3.40;;;;;;;;;;4972703;28;20506;-70
2023/07/17 03:00:08;;;;;;;26.38;3.97;;;;;;;;;;4974299;28;20050;-71
2023/07/17 03:02:35;;;;;;;15.10;3.55;;;;;;;;;;4972874;28;20047;-70
2023/07/17 03:05:04;;;;;;;21.63;4.13;;;;;;;;;;4974272;28;20042;-70
2023/07/17 03:07:31;;;;;;;12.20;3.20;;;;;;;;;;4973089;28;20042;-70
2023/07/17 03:09:56;;;;;;;11.68;3.58;;;;;;;;;;4973465;28;20039;-70
2023/07/17 03:12:22;;;;;;;12.05;3.03;;;;;;;;;;4977578;28;20058;-70
2023/07/17 03:14:47;;;;;;;21.52;3.63;;;;;;;;;;4977696;28;20394;-70
2023/07/17 03:17:12;;;;;;;17.95;3.58;;;;;;;;;;4976696;28;20483;-70
2023/07/17 03:19:38;;;;;;;11.10;3.35;;;;;;;;;;4977353;28;20490;-70
2023/07/17 03:22:03;;;;;;;19.33;4.07;;;;;;;;;;4977807;28;20034;-70
2023/07/17 03:24:29;;;;;;;12.98;3.35;;;;;;;;;;4977544;28;20045;-70
2023/07/17 03:26:54;;;;;;;21.67;4.13;;;;;;;;;;4977865;28;20073;-70
2023/07/17 03:29:19;;;;;;;14.38;3.67;;;;;;;;;;4977546;28;20089;-70
2023/07/17 03:31:45;;;;;;;13.73;3.42;;;;;;;;;;4977393;28;20034;-70
2023/07/17 03:34:10;;;;;;;17.60;3.30;;;;;;;;;;4975920;28;20050;-70
2023/07/17 03:36:35;;;;;;;17.50;3.05;;;;;;;;;;4977402;28;20403;-70
2023/07/17 03:39:01;;;;;;;14.77;3.42;;;;;;;;;;4977395;28;20357;-70
2023/07/17 03:41:26;;;;;;;14.80;3.40;;;;;;;;;;4977365;28;20387;-69
2023/07/17 03:43:56;;;;;;;13.82;3.97;;;;;;;;;;4977276;28;20050;-69
2023/07/17 03:46:21;;;;;;;19.55;3.47;;;;;;;;;;4977203;28;20039;-69
2023/07/17 03:48:47;;;;;;;17.08;3.47;;;;;;;;;;4975623;28;20038;-69
2023/07/17 03:51:12;;;;;;;21.45;3.72;;;;;;;;;;4976670;28;20042;-69
2023/07/17 03:53:37;;;;;;;15.00;2.80;;;;;;;;;;4977165;28;20042;-69
2023/07/17 03:56:03;;;;;;;13.05;3.25;;;;;;;;;;4977104;28;20030;-69
2023/07/17 03:58:28;;;;;;;16.13;3.67;;;;;;;;;;4976929;28;20049;-69
2023/07/17 04:00:54;;;;;;;18.63;3.83;;;;;;;;;;4976781;28;20554;-69
2023/07/17 04:03:19;;;;;;;21.42;3.50;;;;;;;;;;4975712;28;20170;-69
2023/07/17 04:05:44;;;;;;;12.43;3.72;;;;;;;;;;4977056;28;20050;-69
2023/07/17 04:08:10;;;;;;;19.88;4.18;;;;;;;;;;4976799;28;20023;-69
2023/07/17 04:10:35;;;;;;;13.63;3.40;;;;;;;;;;4975661;28;20110;-69
2023/07/17 04:13:00;;;;;;;14.38;3.17;;;;;;;;;;4977103;28;20101;-70
2023/07/17 04:15:26;;;;;;;18.15;2.97;;;;;;;;;;4976591;28;20093;-69
2023/07/17 04:17:51;;;;;;;18.58;3.85;;;;;;;;;;4977349;28;20035;-69
2023/07/17 04:20:16;;;;;;;11.20;2.83;;;;;;;;;;4976604;28;20050;-69
2023/07/17 04:22:42;;;;;;;22.33;3.85;;;;;;;;;;4975678;28;20038;-69
2023/07/17 04:25:08;;;;;;;17.30;3.58;;;;;;;;;;4974603;28;20034;-69
2023/07/17 04:27:33;;;;;;;10.98;3.00;;;;;;;;;;4976461;28;20042;-69
2023/07/17 04:29:58;;;;;;;20.40;3.40;;;;;;;;;;4975260;28;20105;-69
2023/07/17 04:32:24;;;;;;;13.55;3.08;;;;;;;;;;4976459;28;20031;-69
2023/07/17 04:34:49;;;;;;;20.33;3.70;;;;;;;;;;4976537;28;20426;-69
2023/07/17 04:37:15;;;;;;;15.07;2.97;;;;;;;;;;4975383;28;20030;-69
2023/07/17 04:39:40;;;;;;;11.98;2.75;;;;;;;;;;4975348;28;20467;-69
2023/07/17 04:42:05;;;;;;;12.70;3.55;;;;;;;;;;4976404;28;20043;-70
2023/07/17 04:44:31;;;;;;;15.75;3.45;;;;;;;;;;4975796;28;20113;-69
2023/07/17 04:46:56;;;;;;;13.45;3.28;;;;;;;;;;4975244;28;20081;-69
2023/07/17 04:49:22;;;;;;;11.18;2.88;;;;;;;;;;4976058;28;20096;-70
2023/07/17 04:51:47;;;;;;;13.52;3.17;;;;;;;;;;4976210;28;20113;-69
2023/07/17 04:54:13;;;;;;;7.78;2.67;;;;;;;;;;4974560;28;20105;-70
2023/07/17 04:56:38;;;;;;;17.02;3.08;;;;;;;;;;4975872;28;20494;-69
2023/07/17 04:59:04;;;;;;;8.85;2.75;;;;;;;;;;4975756;28;20483;-69
2023/07/17 05:01:29;;;;;;;12.55;2.78;;;;;;;;;;4974488;28;20046;-69
2023/07/17 05:03:55;;;;;;;11.80;3.67;;;;;;;;;;4975994;28;20039;-69
2023/07/17 05:06:20;;;;;;;9.35;2.65;;;;;;;;;;4975692;28;20037;-70
2023/07/17 05:08:46;;;;;;;8.60;2.47;;;;;;;;;;4975956;28;20122;-69
2023/07/17 05:11:11;;;;;;;13.88;3.05;;;;;;;;;;4975357;28;20065;-70
2023/07/17 05:13:37;;;;;;;8.10;2.38;;;;;;;;;;4975767;28;20650;-69
2023/07/17 05:16:02;;;;;;;15.70;2.90;;;;;;;;;;4974446;28;20081;-69
2023/07/17 05:18:27;;;;;;;13.82;2.22;;;;;;;;;;4975535;28;20047;-70
2023/07/17 05:20:53;;;;;;;8.95;2.50;;;;;;;;;;4975783;28;20038;-69
2023/07/17 05:23:18;;;;;;;4.25;1.88;;;;;;;;;;4975599;28;20035;-69
2023/07/17 05:26:13;;;;;;;7.78;2.25;;;;;;;;;;4975354;28;20490;-69
2023/07/17 05:28:40;;;;;;;5.90;2.33;;;;;;;;;;4971526;28;20483;-70
2023/07/17 05:31:05;;;;;;;7.30;2.25;;;;;;;;;;4975236;28;20051;-70
2023/07/17 05:33:31;;;;;;;6.68;2.22;;;;;;;;;;4975097;28;20027;-70
2023/07/17 05:35:56;;;;;;;5.10;2.30;;;;;;;;;;4975018;28;20062;-70
2023/07/17 05:38:21;;;;;;;5.82;2.55;;;;;;;;;;4975184;28;20047;-70
2023/07/17 05:40:47;;;;;;;8.40;2.35;;;;;;;;;;4974818;28;20047;-70
2023/07/17 05:43:12;;;;;;;4.55;2.10;;;;;;;;;;4975180;28;20391;-70
2023/07/17 05:45:37;;;;;;;4.15;1.80;;;;;;;;;;4975059;28;20073;-70
2023/07/17 05:48:03;;;;;;;2.65;1.63;;;;;;;;;;4974797;28;20038;-70
2023/07/17 05:50:29;;;;;;;5.25;2.00;;;;;;;;;;4974978;28;20039;-71
2023/07/17 05:52:54;;;;;;;7.15;1.98;;;;;;;;;;4975237;28;20039;-70
2023/07/17 05:55:19;;;;;;;5.28;2.05;;;;;;;;;;4974971;28;20035;-71
2023/07/17 05:57:45;;;;;;;4.82;2.22;;;;;;;;;;4973790;28;20037;-68
2023/07/17 06:00:14;;;;;;;3.70;1.88;;;;;;;;;;4973963;28;20097;-69
2023/07/17 06:02:41;;;;;;;4.70;2.00;;;;;;;;;;4974786;28;20027;-70
2023/07/17 06:05:06;;;;;;;4.88;1.85;;;;;;;;;;4973896;28;20038;-68
2023/07/17 06:07:32;;;;;;;5.75;1.88;;;;;;;;;;4973016;28;20042;-68
2023/07/17 06:09:58;;;;;;;4.00;1.75;;;;;;;;;;4973635;28;20446;-68
2023/07/17 06:12:23;;;;;;;7.25;1.70;;;;;;;;;;4974811;28;20113;-68
2023/07/17 06:14:48;;;;;;;6.13;1.88;;;;;;;;;;4974582;28;20049;-69
2023/07/17 06:17:14;;;;;;;5.10;1.83;;;;;;;;;;4974607;28;20049;-71
2023/07/17 06:19:39;;;;;;;5.95;1.95;;;;;;;;;;4974715;28;20037;-71
2023/07/17 06:22:04;;;;;;;4.43;2.00;;;;;;;;;;4972477;28;20047;-71
2023/07/17 06:24:30;;;;;;;6.10;1.90;;;;;;;;;;4974645;28;20114;-70
2023/07/17 06:26:55;;;;;;;5.13;1.92;;;;;;;;;;4972846;28;20042;-71
2023/07/17 06:29:20;;;;;;;5.28;2.00;;;;;;;;;;4974452;28;20042;-71
2023/07/17 06:31:46;;;;;;;7.60;2.17;;;;;;;;;;4974522;28;20034;-71
2023/07/17 06:34:11;;;;;;;4.47;1.70;;;;;;;;;;4974537;28;20042;-71
2023/07/17 06:36:37;;;;;;;4.90;1.77;;;;;;;;;;4974327;28;20173;-71
2023/07/17 06:39:02;;;;;;;6.65;2.20;;;;;;;;;;4974225;28;20038;-71
2023/07/17 06:41:27;;;;;;;4.75;2.10;;;;;;;;;;4974532;28;20066;-71
2023/07/17 06:43:53;;;;;;;8.43;2.00;;;;;;;;;;4974418;28;20113;-71
2023/07/17 06:46:18;;;;;;;6.05;1.98;;;;;;;;;;4975558;28;20027;-71
2023/07/17 06:48:44;;;;;;;9.50;2.20;;;;;;;;;;4977203;28;20045;-71
2023/07/17 06:51:09;;;;;;;7.07;2.40;;;;;;;;;;4978082;28;20043;-71
2023/07/17 06:53:34;;;;;;;5.07;2.10;;;;;;;;;;4977810;28;20037;-71
2023/07/17 06:56:00;;;;;;;7.15;2.33;;;;;;;;;;4978438;28;20030;-71
2023/07/17 06:58:27;;;;;;;6.47;2.58;;;;;;;;;;4978055;28;20060;-71
2023/07/17 07:00:56;;;;;;;6.45;2.42;;;;;;;;;;4976741;28;20105;-71
2023/07/17 07:03:22;;;;;;;8.35;2.53;;;;;;;;;;4976981;28;20026;-71
2023/07/17 07:05:59;;;;;;;7.50;2.97;;;;;;;;;;4978055;28;20391;-71
2023/07/17 07:08:25;;;;;;;6.63;2.13;;;;;;;;;;4976881;28;20031;-71
2023/07/17 07:10:52;;;;;;;5.47;2.30;;;;;;;;;;4976766;28;20399;-71
2023/07/17 07:13:18;;;;;;;7.43;2.63;;;;;;;;;;4977947;28;20055;-71
2023/07/17 07:15:43;;;;;;;6.70;2.20;;;;;;;;;;4976694;28;20105;-71
2023/07/17 07:18:08;;;;;;;4.60;2.13;;;;;;;;;;4977877;28;20547;-71
2023/07/17 07:20:34;;;;;;;6.78;2.53;;;;;;;;;;4976505;28;20398;-71
2023/07/17 07:22:59;;;;;;;4.68;1.92;;;;;;;;;;4978128;28;20088;-71
2023/07/17 07:25:24;;;;;;;8.23;2.28;;;;;;;;;;4977652;28;20071;-71
2023/07/17 07:27:50;;;;;;;6.80;2.20;;;;;;;;;;4977415;28;20113;-71
2023/07/17 07:30:15;;;;;;;5.57;2.00;;;;;;;;;;4977006;28;20034;-71
2023/07/17 07:32:41;;;;;;;5.75;2.25;;;;;;;;;;4974672;28;20039;-71
2023/07/17 07:35:07;;;;;;;4.63;2.30;;;;;;;;;;4977579;28;20046;-68
2023/07/17 07:37:32;;;;;;;5.78;2.17;;;;;;;;;;4977263;28;20035;-69
2023/07/17 07:39:57;;;;;;;5.50;1.83;;;;;;;;;;4977543;28;20054;-69
2023/07/17 07:42:23;;;;;;;7.63;1.90;;;;;;;;;;4977218;28;20042;-69
2023/07/17 07:44:48;;;;;;;5.60;2.03;;;;;;;;;;4977462;28;20084;-68
2023/07/17 07:47:13;;;;;;;5.40;1.83;;;;;;;;;;4977386;28;20483;-68
2023/07/17 07:49:39;;;;;;;5.35;1.50;;;;;;;;;;4977195;28;20395;-68
2023/07/17 07:52:04;;;;;;;3.78;1.38;;;;;;;;;;4977437;28;20073;-68
2023/07/17 07:54:30;;;;;;;5.63;1.50;;;;;;;;;;4975763;28;20474;-68
2023/07/17 07:56:55;;;;;;;5.53;1.48;;;;;;;;;;4976687;28;20023;-68
2023/07/17 07:59:20;;;;;;;4.82;1.30;;;;;;;;;;4975786;28;20038;-70
2023/07/17 08:01:46;;;;;;;6.85;1.33;;;;;;;;;;4975496;28;20054;-70
2023/07/17 08:04:11;;;;;;;4.75;1.38;;;;;;;;;;4976913;28;20031;-71
2023/07/17 08:06:36;;;;;;;8.55;1.92;;;;;;;;;;4976713;28;20035;-70
2023/07/17 08:09:03;;;;;;;4.68;1.27;;;;;;;;;;4976644;28;20050;-70
2023/07/17 08:11:28;;;;;;;4.25;1.20;;;;;;;;;;4976694;28;20089;-70
2023/07/17 08:13:53;;;;;;;4.45;1.40;;;;;;;;;;4976909;28;20030;-70
2023/07/17 08:16:19;;;;;;;6.25;1.55;;;;;;;;;;4976685;28;20043;-70
2023/07/17 08:18:46;;;;;;;5.90;1.38;;;;;;;;;;4976804;28;20034;-70
2023/07/17 08:21:12;;;;;;;3.38;1.20;;;;;;;;;;4976914;28;20874;-70
2023/07/17 08:23:37;;;;;;;5.35;1.80;;;;;;;;;;4975274;28;20039;-70
2023/07/17 08:26:03;;;;;;;3.53;1.00;;;;;;;;;;4976745;28;20039;-70
2023/07/17 08:28:28;;;;;;;7.00;1.13;;;;;;;;;;4975382;28;20101;-68
2023/07/17 08:30:53;;;;;;;6.22;1.50;;;;;;;;;;4976334;28;20039;-68
2023/07/17 08:33:20;;;;;;;4.53;1.42;;;;;;;;;;4976309;28;20062;-71
2023/07/17 08:35:45;;;;;;;4.72;1.20;;;;;;;;;;4976597;28;20118;-70
2023/07/17 08:38:11;;;;;;;3.58;1.20;;;;;;;;;;4976321;28;20121;-71
2023/07/17 08:40:38;;;;;;;5.78;1.67;;;;;;;;;;4976317;28;20058;-70
2023/07/17 08:43:06;;;;;;;3.47;1.50;;;;;;;;;;4976047;28;20403;-70
2023/07/17 08:45:31;;;;;;;5.15;1.85;;;;;;;;;;4975817;28;20566;-68
2023/07/17 08:47:57;;;;;;;4.38;1.40;;;;;;;;;;4975210;28;20030;-69
2023/07/17 08:50:24;;;;;;;6.05;1.42;;;;;;;;;;4974989;28;20026;-69
2023/07/17 08:52:50;;;;;;;4.63;1.30;;;;;;;;;;4974918;28;20047;-69
2023/07/17 08:55:15;;;;;;;7.40;1.30;;;;;;;;;;4976142;28;20041;-71
2023/07/17 08:57:41;;;;;;;3.30;1.30;;;;;;;;;;4975941;28;20029;-70
2023/07/17 09:00:07;;;;;;;3.35;1.25;;;;;;;;;;4974658;28;20454;-70
2023/07/17 09:02:35;;;;;;;4.28;1.42;;;;;;;;;;4975654;28;20071;-70
2023/07/17 09:05:00;;;;;;;6.75;1.45;;;;;;;;;;4976210;28;20026;-70
2023/07/17 09:07:25;;;;;;;4.47;1.48;;;;;;;;;;4975372;28;20041;-71
2023/07/17 09:10:15;;;;;;;2.97;1.20;;;;;;;;;;4975180;28;20133;-70
2023/07/17 09:12:42;;;;;;;7.00;1.48;;;;;;;;;;4965357;28;20043;-70
2023/07/17 09:15:08;;;;;;;4.32;1.48;;;;;;;;;;4975722;28;20027;-70
2023/07/17 09:17:33;;;;;;;6.38;1.40;;;;;;;;;;4975240;28;20415;-70
2023/07/17 09:20:13;;;;;;;3.45;1.17;;;;;;;;;;4974090;28;20035;-71
2023/07/17 09:22:38;;;;;;;6.40;1.55;;;;;;;;;;4974278;28;20050;-70
2023/07/17 09:25:05;;;;;;;5.03;1.13;;;;;;;;;;4975701;28;20050;-71
2023/07/17 09:27:41;;;;;;;4.40;1.50;;;;;;;;;;4975363;28;20030;-68
2023/07/17 09:30:11;;;;;;;3.67;1.10;;;;;;;;;;4963716;28;20039;-68
2023/07/17 09:32:36;;;;;;;3.63;1.23;;;;;;;;;;4975249;28;20046;-69
2023/07/17 09:35:06;;;;;;;6.55;1.25;;;;;;;;;;4974911;28;20031;-68
2023/07/17 09:37:33;;;;;;;4.35;1.45;;;;;;;;;;4974182;28;20043;-69
2023/07/17 09:39:59;;;;;;;3.13;1.15;;;;;;;;;;4973996;28;20112;-69
2023/07/17 09:42:24;;;;;;;3.80;0.80;;;;;;;;;;4975237;28;20037;-69
2023/07/17 09:44:53;;;;;;;3.33;1.05;;;;;;;;;;4975003;28;20042;-69
2023/07/17 09:47:19;;;;;;;9.38;1.10;;;;;;;;;;4975224;28;20121;-69
2023/07/17 09:49:47;;;;;;;6.93;1.27;;;;;;;;;;4974950;28;20545;-68
2023/07/17 09:52:13;;;;;;;5.03;1.17;;;;;;;;;;4972972;28;20043;-69
2023/07/17 09:54:40;;;;;;;6.32;1.88;;;;;;;;;;4974992;28;20109;-68
2023/07/17 09:57:08;;;;;;;4.60;1.30;;;;;;;;;;4974964;28;20034;-69
2023/07/17 09:59:35;;;;;;;6.90;1.15;;;;;;;;;;4973492;28;20115;-68
2023/07/17 10:02:02;;;;;;;5.85;1.30;;;;;;;;;;4973524;28;20478;-70
2023/07/17 10:04:39;;;;;;;2.55;1.00;;;;;;;;;;4973704;28;20034;-71
2023/07/17 10:07:07;;;;;;;2.50;0.88;;;;;;;;;;4962695;28;20039;-70
2023/07/17 10:09:34;;;;;;;5.03;0.88;;;;;;;;;;4974821;28;20046;-70
2023/07/17 10:12:00;;;;;;;4.13;0.93;;;;;;;;;;4973468;28;20031;-70
2023/07/17 10:14:26;;;;;;;4.18;0.93;;;;;;;;;;4973514;28;20541;-70
2023/07/17 10:16:52;;;;;;;7.25;1.40;;;;;;;;;;4974670;28;20061;-70
2023/07/17 10:19:17;;;;;;;2.92;0.82;;;;;;;;;;4974623;28;20387;-70
2023/07/17 10:21:56;;;;;;;2.67;1.00;;;;;;;;;;4973828;28;20038;-70
2023/07/17 10:24:24;;;;;;;5.75;1.05;;;;;;;;;;4973006;28;20491;-70
2023/07/17 10:26:50;;;;;;;4.78;1.10;;;;;;;;;;4974479;28;20126;-70
2023/07/17 10:29:29;;;;;;;4.65;1.00;;;;;;;;;;4972945;28;20037;-71
2023/07/17 10:31:57;;;;;;;2.75;1.00;;;;;;;;;;4974441;28;20039;-68
2023/07/17 10:34:49;;;;;;;2.22;1.00;;;;;;;;;;4974259;28;20039;-68
2023/07/17 10:37:39;;;;;;;2.30;0.80;;;;;;;;;;4974540;28;20035;-69
2023/07/17 10:40:09;;;;;;;1.88;0.85;;;;;;;;;;4971266;28;20089;-68
2023/07/17 10:42:34;;;;;;;6.35;1.40;;;;;;;;;;4972701;28;20051;-68
2023/07/17 10:45:10;;;;;;;3.88;0.88;;;;;;;;;;4974522;28;20039;-69
2023/07/17 10:47:35;;;;;;;2.35;0.80;;;;;;;;;;4972712;28;20411;-69
2023/07/17 10:50:04;;;;;;;2.40;0.85;;;;;;;;;;4974434;28;20043;-70
2023/07/17 10:52:36;;;;;;;4.43;1.10;;;;;;;;;;4974238;28;20037;-69
2023/07/17 10:55:05;;;;;;;2.40;0.90;;;;;;;;;;4974217;28;20105;-70
2023/07/17 10:57:31;;;;;;;2.17;0.80;;;;;;;;;;4974078;28;20038;-70
2023/07/17 10:59:57;;;;;;;2.92;0.88;;;;;;;;;;4974087;28;20047;-70
2023/07/17 11:02:25;;;;;;;2.25;0.77;;;;;;;;;;4972941;28;20463;-70
2023/07/17 11:04:54;;;;;;;2.55;0.70;;;;;;;;;;4968127;28;20034;-70
2023/07/17 11:07:19;;;;;;;3.08;1.00;;;;;;;;;;4974062;28;20126;-70
2023/07/17 11:09:45;;;;;;;2.83;0.93;;;;;;;;;;4972605;28;20122;-70
2023/07/17 11:12:10;;;;;;;1.92;0.70;;;;;;;;;;4972875;28;20529;-70
2023/07/17 11:14:36;;;;;;;7.30;0.90;;;;;;;;;;4972833;28;20047;-70
2023/07/17 11:17:01;;;;;;;1.52;0.70;;;;;;;;;;4972911;28;20039;-70
2023/07/17 11:19:26;;;;;;;2.80;0.75;;;;;;;;;;4974166;28;20510;-70
2023/07/17 11:21:54;;;;;;;1.83;0.70;;;;;;;;;;4973918;28;20534;-70
2023/07/17 11:24:20;;;;;;;2.40;0.70;;;;;;;;;;4974002;28;20074;-70
2023/07/17 11:26:46;;;;;;;1.90;0.63;;;;;;;;;;4973708;28;20059;-70
2023/07/17 11:29:12;;;;;;;2.75;0.73;;;;;;;;;;4972966;28;20054;-70
2023/07/17 11:31:37;;;;;;;3.45;0.70;;;;;;;;;;4973964;28;20093;-70
2023/07/17 11:34:09;;;;;;;2.72;0.60;;;;;;;;;;4977113;28;20027;-70
2023/07/17 11:36:42;;;;;;;3.50;1.73;;;;;;;;;;4970689;28;20039;-70
2023/07/17 11:39:34;;;;;;;4.88;0.82;;;;;;;;;;4976545;28;20045;-70
2023/07/17 11:41:59;;;;;;;3.47;0.88;;;;;;;;;;4976934;28;20050;-69
2023/07/17 11:44:29;;;;;;;1.92;0.98;;;;;;;;;;4977466;28;20031;-70
2023/07/17 11:46:59;;;;;;;1.50;0.50;;;;;;;;;;4970590;28;20557;-69
2023/07/17 11:49:25;;;;;;;2.95;0.80;;;;;;;;;;4972971;28;20034;-70
2023/07/17 11:51:51;;;;;;;2.40;0.52;;;;;;;;;;4974549;28;20038;-70
2023/07/17 11:54:16;;;;;;;3.25;0.60;;;;;;;;;;4968027;28;20456;-70
2023/07/17 11:56:43;;;;;;;4.32;0.85;;;;;;;;;;4973599;28;20038;-70
2023/07/17 11:59:19;;;;;;;2.28;0.60;;;;;;;;;;4971727;28;20121;-70
2023/07/17 12:01:44;;;;;;;2.08;0.90;;;;;;;;;;4976877;28;20493;-70
2023/07/17 12:04:22;;;;;;;2.72;0.80;;;;;;;;;;4976867;28;20035;-70
2023/07/17 12:06:48;;;;;;;2.85;0.82;;;;;;;;;;4970634;28;20030;-70
2023/07/17 12:09:14;;;;;;;5.00;1.10;;;;;;;;;;4975458;28;20069;-70
2023/07/17 12:11:40;;;;;;;3.42;0.90;;;;;;;;;;4971671;28;20463;-70
2023/07/17 12:14:05;;;;;;;7.80;1.00;;;;;;;;;;4976617;28;20039;-70
2023/07/17 12:16:31;;;;;;;1.92;0.82;;;;;;;;;;4975648;28;20076;-70
2023/07/17 12:18:56;;;;;;;1.52;0.77;;;;;;;;;;4976125;28;20031;-70
2023/07/17 12:21:21;;;;;;;3.38;0.90;;;;;;;;;;4976445;28;20110;-70
2023/07/17 12:23:47;;;;;;;3.33;1.00;;;;;;;;;;4975974;28;20066;-70
2023/07/17 12:26:12;;;;;;;5.18;1.00;;;;;;;;;;4970327;28;20039;-70
2023/07/17 12:28:37;;;;;;;3.88;1.00;;;;;;;;;;4971020;28;20039;-70
2023/07/17 12:31:03;;;;;;;4.75;1.10;;;;;;;;;;4966562;28;20067;-70
2023/07/17 12:33:28;;;;;;;1.15;0.70;;;;;;;;;;4971725;28;20038;-70
2023/07/17 12:35:54;;;;;;;3.58;1.00;;;;;;;;;;4964596;28;20035;-70
2023/07/17 12:38:19;;;;;;;7.40;1.10;;;;;;;;;;4967551;28;20043;-70
2023/07/17 12:40:45;;;;;;;3.92;0.93;;;;;;;;;;4967572;28;20035;-70
2023/07/17 12:43:11;;;;;;;3.85;0.95;;;;;;;;;;4974091;28;20109;-70
2023/07/17 12:45:36;;;;;;;3.60;0.80;;;;;;;;;;4967835;28;20518;-70
2023/07/17 12:48:02;;;;;;;3.95;1.10;;;;;;;;;;4973520;28;20031;-70
2023/07/17 12:50:27;;;;;;;5.00;0.85;;;;;;;;;;4976239;28;20045;-70
2023/07/17 12:52:52;;;;;;;4.25;1.00;;;;;;;;;;4973627;28;20077;-70
2023/07/17 12:55:18;;;;;;;4.38;1.10;;;;;;;;;;4962149;28;20039;-71
2023/07/17 12:57:43;;;;;;;5.40;0.93;;;;;;;;;;4963934;28;20043;-70
2023/07/17 13:00:09;;;;;;;3.95;1.30;;;;;;;;;;4966008;28;20069;-70
2023/07/17 13:02:34;;;;;;;4.30;1.00;;;;;;;;;;4972336;28;20042;-70
2023/07/17 13:04:59;;;;;;;4.72;1.00;;;;;;;;;;4976087;28;20110;-70
2023/07/17 13:07:25;;;;;;;5.40;0.90;;;;;;;;;;4974649;28;20062;-70
2023/07/17 13:09:50;;;;;;;3.42;0.95;;;;;;;;;;4975710;28;20041;-70
2023/07/17 13:12:15;;;;;;;5.53;1.00;;;;;;;;;;4975858;28;20034;-70
2023/07/17 13:14:41;;;;;;;3.38;1.10;;;;;;;;;;4975615;28;20479;-70
2023/07/17 13:17:06;;;;;;;4.28;1.10;;;;;;;;;;4975669;28;20077;-70
2023/07/17 13:19:32;;;;;;;3.95;1.20;;;;;;;;;;4974662;28;20038;-70
2023/07/17 13:21:57;;;;;;;3.53;1.13;;;;;;;;;;4975517;28;20097;-70
2023/07/17 13:24:23;;;;;;;8.25;1.15;;;;;;;;;;4975634;28;20034;-70
2023/07/17 13:26:48;;;;;;;2.47;1.02;;;;;;;;;;4974623;28;20554;-70
2023/07/17 13:29:13;;;;;;;3.30;0.93;;;;;;;;;;4974461;28;20130;-70
2023/07/17 13:31:39;;;;;;;6.38;1.15;;;;;;;;;;4975290;28;20037;-70
2023/07/17 13:34:04;;;;;;;3.15;0.90;;;;;;;;;;4975734;28;20066;-70
2023/07/17 13:36:29;;;;;;;2.83;0.70;;;;;;;;;;4974492;28;20125;-70
2023/07/17 13:38:55;;;;;;;1.95;0.60;;;;;;;;;;4975367;28;20042;-70
2023/07/17 13:41:47;;;;;;;2.28;0.75;;;;;;;;;;4975288;28;20386;-70
2023/07/17 13:44:13;;;;;;;2.88;0.80;;;;;;;;;;4972268;28;20113;-70
2023/07/17 13:46:43;;;;;;;3.75;0.98;;;;;;;;;;4974650;28;20466;-70
2023/07/17 13:49:10;;;;;;;2.05;0.77;;;;;;;;;;4974936;28;20570;-70
2023/07/17 13:51:35;;;;;;;4.82;1.00;;;;;;;;;;4973822;28;20121;-70
2023/07/17 13:54:01;;;;;;;3.05;1.10;;;;;;;;;;4975005;28;20117;-70
2023/07/17 13:56:27;;;;;;;5.38;1.15;;;;;;;;;;4974822;28;20046;-70
2023/07/17 13:58:52;;;;;;;3.67;1.05;;;;;;;;;;4973863;28;20042;-69
2023/07/17 14:01:18;;;;;;;4.15;0.85;;;;;;;;;;4975057;28;20060;-70
2023/07/17 14:03:43;;;;;;;4.75;1.10;;;;;;;;;;4974763;28;20529;-70
2023/07/17 14:06:08;;;;;;;1.88;0.80;;;;;;;;;;4974951;28;20478;-70
2023/07/17 14:08:34;;;;;;;3.03;1.10;;;;;;;;;;4975045;28;20031;-70
2023/07/17 14:10:59;;;;;;;2.72;1.00;;;;;;;;;;4973493;28;20402;-70
2023/07/17 14:13:25;;;;;;;5.38;1.08;;;;;;;;;;4974649;28;20042;-70
2023/07/17 14:15:51;;;;;;;3.05;0.85;;;;;;;;;;4974631;28;20084;-70
2023/07/17 14:18:16;;;;;;;4.65;1.10;;;;;;;;;;4973511;28;20113;-70
2023/07/17 14:20:42;;;;;;;2.25;0.80;;;;;;;;;;4974501;28;20129;-70
2023/07/17 14:23:07;;;;;;;2.35;0.80;;;;;;;;;;4972736;28;20114;-70
2023/07/17 14:25:32;;;;;;;4.63;1.45;;;;;;;;;;4974494;28;20062;-70
2023/07/17 14:27:58;;;;;;;2.85;0.85;;;;;;;;;;4961991;28;20050;-70
2023/07/17 14:30:23;;;;;;;1.65;0.60;;;;;;;;;;4973328;28;20039;-70
2023/07/17 14:32:49;;;;;;;3.75;0.90;;;;;;;;;;4972354;28;20054;-70
2023/07/17 14:35:15;;;;;;;3.20;0.90;;;;;;;;;;4973376;28;20062;-70